Terminal Aerodrome Forecast
Issued by NWS Mt. Holly, NJ

Home | Current Version | Previous Version | Text Only | Print | Product List | Glossary On
Versions: 1 2 3 4 5 6 7 8 9 10 11 12 13 14 15 16 17 18 19 20 21 22 23 24 25 26
000
FTUS41 KPHI 190907 AAB
TAFABE
TAF AMD
KABE 190907Z 1909/2006 27006KT P6SM FEW030 OVC045
     FM191200 30007KT P6SM FEW035
     FM191900 28007KT P6SM SCT020
     FM192300 VRB02KT P6SM SCT250=

USA.gov is the U.S. government's official web portal to all federal, state and local government web resources and services.